createdAt,value
2019-06-10T00:01:08.402Z,44.14
2019-06-10T00:03:38.447Z,44.05
2019-06-10T00:06:11.542Z,44.28
2019-06-10T00:08:42.776Z,44.68
2019-06-10T00:11:14.800Z,44.73
2019-06-10T00:13:46.672Z,44.55
2019-06-10T00:16:20.653Z,44.57
2019-06-10T00:18:51.658Z,44.52
2019-06-10T00:21:22.945Z,44.79
2019-06-10T00:23:54.896Z,45.15
2019-06-10T00:26:26.921Z,45.18
2019-06-10T00:28:59.997Z,44.99
2019-06-10T00:31:31.980Z,45.11
2019-06-10T00:34:06.628Z,45.04
2019-06-10T00:36:38.047Z,44.91
2019-06-10T00:39:13.179Z,44.99
2019-06-10T00:41:43.881Z,44.90
2019-06-10T00:44:15.224Z,44.82
2019-06-10T00:46:46.397Z,45.05
2019-06-10T00:49:18.258Z,45.18
2019-06-10T00:51:50.958Z,45.10
2019-06-10T00:54:22.504Z,45.20
2019-06-10T00:56:54.291Z,45.12
2019-06-10T00:59:26.311Z,45.44
2019-06-10T01:01:58.320Z,45.43
2019-06-10T01:04:31.911Z,45.54
2019-06-10T01:07:04.435Z,45.50
2019-06-10T01:09:36.444Z,45.81
2019-06-10T01:12:09.058Z,45.79
2019-06-10T01:14:41.173Z,45.98
2019-06-10T01:17:15.229Z,46.23
2019-06-10T01:19:46.861Z,45.98
2019-06-10T01:22:21.130Z,46.22
2019-06-10T01:24:52.831Z,46.11
2019-06-10T01:27:24.883Z,46.39
2019-06-10T01:29:56.972Z,46.53
2019-06-10T01:32:31.013Z,46.34
2019-06-10T01:35:02.624Z,46.50
2019-06-10T01:37:35.065Z,46.83
2019-06-10T01:40:08.138Z,46.87
2019-06-10T01:42:41.265Z,47.03
2019-06-10T01:45:14.652Z,47.13
2019-06-10T01:47:47.243Z,47.41
2019-06-10T01:50:21.650Z,47.56
2019-06-10T01:52:52.363Z,47.61
2019-06-10T01:55:23.691Z,47.42
2019-06-10T01:57:55.607Z,47.51
2019-06-10T02:00:34.539Z,47.73
2019-06-10T02:03:05.865Z,47.81
2019-06-10T02:05:37.804Z,48.21
2019-06-10T02:08:11.324Z,47.99
2019-06-10T02:10:41.975Z,48.16
2019-06-10T02:13:32.533Z,48.67
2019-06-10T02:16:05.200Z,48.43
2019-06-10T02:18:36.599Z,48.52
2019-06-10T02:21:11.550Z,48.71
2019-06-10T02:23:42.171Z,48.69
2019-06-10T02:26:15.291Z,49.45
2019-06-10T02:28:47.087Z,49.90
2019-06-10T02:31:27.566Z,49.66
2019-06-10T02:33:52.444Z,50.02
2019-06-10T02:36:31.201Z,49.58
2019-06-10T02:38:58.556Z,49.51
2019-06-10T02:41:35.281Z,49.93
2019-06-10T02:44:04.733Z,49.72
2019-06-10T02:46:36.784Z,50.29
2019-06-10T02:49:26.608Z,49.90
2019-06-10T02:51:43.567Z,50.10
2019-06-10T02:54:16.897Z,49.98
2019-06-10T02:56:47.557Z,50.27
2019-06-10T02:59:21.750Z,50.53
2019-06-10T03:01:53.645Z,50.77
2019-06-10T03:04:59.641Z,50.60
2019-06-10T03:07:35.275Z,50.74
2019-06-10T03:10:05.587Z,51.18
2019-06-10T03:12:37.565Z,51.16
2019-06-10T03:15:12.593Z,51.23
2019-06-10T03:17:43.377Z,51.22
2019-06-10T03:20:16.030Z,51.42
2019-06-10T03:22:47.647Z,51.08
2019-06-10T03:25:23.330Z,51.31
2019-06-10T03:27:55.711Z,51.22
2019-06-10T03:30:46.728Z,51.37
2019-06-10T03:33:06.084Z,51.14
2019-06-10T03:35:38.246Z,51.20
2019-06-10T03:38:12.359Z,51.13
2019-06-10T03:40:44.113Z,50.86
2019-06-10T03:43:16.707Z,50.69
2019-06-10T03:45:48.163Z,50.86
2019-06-10T03:48:23.737Z,51.14
2019-06-10T03:50:54.412Z,51.22
2019-06-10T03:53:27.342Z,51.78
2019-06-10T03:56:03.290Z,51.85
2019-06-10T03:58:38.164Z,53.03
2019-06-10T04:01:12.272Z,53.03
2019-06-10T04:03:46.132Z,53.92
2019-06-10T04:06:19.543Z,53.63
2019-06-10T04:08:53.279Z,53.38
2019-06-10T04:11:25.912Z,53.53
2019-06-10T04:13:58.976Z,53.73
2019-06-10T04:16:32.796Z,54.13
2019-06-10T04:19:04.650Z,54.17
2019-06-10T04:21:36.632Z,53.92
2019-06-10T04:24:08.644Z,53.41
2019-06-10T04:26:44.132Z,53.01
2019-06-10T04:29:15.350Z,52.65
2019-06-10T04:31:52.242Z,52.64
2019-06-10T04:34:25.895Z,52.11
2019-06-10T04:36:56.758Z,52.20
2019-06-10T04:39:29.270Z,51.85
2019-06-10T04:42:03.292Z,51.77
2019-06-10T04:44:35.387Z,52.80
2019-06-10T04:47:07.494Z,52.79
2019-06-10T04:49:39.452Z,52.42
2019-06-10T04:52:12.242Z,52.26
2019-06-10T04:54:43.726Z,52.55
2019-06-10T04:57:14.943Z,52.62
2019-06-10T04:59:46.290Z,52.67
2019-06-10T05:02:19.379Z,53.33
2019-06-10T05:04:53.207Z,53.67
2019-06-10T05:07:26.657Z,53.12
2019-06-10T05:09:58.246Z,53.01
2019-06-10T05:12:32.593Z,52.25
2019-06-10T05:15:04.057Z,51.21
2019-06-10T05:17:36.201Z,50.10
2019-06-10T05:20:09.094Z,48.86
2019-06-10T05:22:42.424Z,48.46
2019-06-10T05:25:14.090Z,48.11
2019-06-10T05:27:46.091Z,47.96
2019-06-10T05:30:20.020Z,48.34
2019-06-10T05:32:52.423Z,48.83
2019-06-10T05:35:26.618Z,48.74
2019-06-10T05:37:57.514Z,48.19
2019-06-10T05:40:29.383Z,47.99
2019-06-10T05:43:02.385Z,47.03
2019-06-10T05:45:35.232Z,46.73
2019-06-10T05:48:06.795Z,45.33
2019-06-10T05:50:38.713Z,44.57
2019-06-10T05:53:13.012Z,45.07
2019-06-10T05:55:47.589Z,45.53
2019-06-10T05:58:23.108Z,46.33
2019-06-10T06:00:53.630Z,48.06
2019-06-10T06:03:25.788Z,48.25
2019-06-10T06:06:02.913Z,47.88
2019-06-10T06:08:35.415Z,47.66
2019-06-10T06:11:07.431Z,47.66
2019-06-10T06:13:39.422Z,47.10
2019-06-10T06:16:13.774Z,46.56
2019-06-10T06:18:45.742Z,46.37
2019-06-10T06:21:25.710Z,46.21
2019-06-10T06:23:52.603Z,46.30
2019-06-10T06:26:24.051Z,47.21
2019-06-10T06:28:56.370Z,46.97
2019-06-10T06:31:28.338Z,46.40
2019-06-10T06:34:03.018Z,45.56
2019-06-10T06:36:36.576Z,46.38
2019-06-10T06:39:09.913Z,46.24
2019-06-10T06:41:42.725Z,45.42
2019-06-10T06:44:14.379Z,44.93
2019-06-10T06:46:46.371Z,45.29
2019-06-10T06:49:18.525Z,45.40
2019-06-10T06:51:56.163Z,45.47
2019-06-10T06:54:24.281Z,45.42
2019-06-10T06:56:56.427Z,45.86
2019-06-10T06:59:29.217Z,46.78
2019-06-10T07:02:02.731Z,47.00
2019-06-10T07:04:35.875Z,47.78
2019-06-10T07:07:08.633Z,48.49
2019-06-10T07:09:43.215Z,48.51
2019-06-10T07:12:16.877Z,48.79
2019-06-10T07:14:52.605Z,48.86
2019-06-10T07:17:24.737Z,48.75
2019-06-10T07:19:57.639Z,48.79
2019-06-10T07:22:29.237Z,48.74
2019-06-10T07:25:05.947Z,48.84
2019-06-10T07:27:37.552Z,48.87
2019-06-10T07:30:14.275Z,48.82
2019-06-10T07:32:46.968Z,49.07
2019-06-10T07:35:17.252Z,49.21
2019-06-10T07:37:52.486Z,49.42
2019-06-10T07:40:25.673Z,49.08
2019-06-10T07:42:57.605Z,48.75
2019-06-10T07:45:29.549Z,48.60
2019-06-10T07:48:02.808Z,48.28
2019-06-10T07:50:36.175Z,48.28
2019-06-10T07:53:08.853Z,47.97
2019-06-10T07:55:42.132Z,47.91
2019-06-10T07:58:15.212Z,47.72
2019-06-10T08:00:48.549Z,47.48
2019-06-10T08:03:22.969Z,47.59
2019-06-10T08:05:58.058Z,47.59
2019-06-10T08:08:29.528Z,47.71
2019-06-10T08:11:03.415Z,47.65
2019-06-10T08:13:35.202Z,47.62
2019-06-10T08:16:09.466Z,46.94
2019-06-10T08:19:09.680Z,46.94
2019-06-10T08:21:14.548Z,46.33
2019-06-10T08:23:47.451Z,45.93
2019-06-10T08:26:23.019Z,45.28
2019-06-10T08:28:57.580Z,45.16
2019-06-10T08:31:29.088Z,45.23
2019-06-10T08:34:03.054Z,45.63
2019-06-10T08:36:34.208Z,45.56
2019-06-10T08:39:07.576Z,45.15
2019-06-10T08:41:41.173Z,44.89
2019-06-10T08:44:14.669Z,44.69
2019-06-10T08:46:47.318Z,44.07
2019-06-10T08:49:23.901Z,43.55
2019-06-10T08:51:55.076Z,42.83
2019-06-10T08:54:26.380Z,41.67
2019-06-10T08:56:58.291Z,40.39
2019-06-10T08:59:29.651Z,39.55
2019-06-10T09:02:02.902Z,39.18
2019-06-10T09:04:35.498Z,39.29
2019-06-10T09:07:07.977Z,39.61
2019-06-10T09:09:40.464Z,39.49
2019-06-10T09:12:27.972Z,39.34
2019-06-10T09:14:48.195Z,39.73
2019-06-10T09:17:19.512Z,39.67
2019-06-10T09:19:53.981Z,39.09
2019-06-10T09:22:25.152Z,38.72
2019-06-10T09:24:58.200Z,39.21
2019-06-10T09:27:32.270Z,38.14
2019-06-10T09:30:03.595Z,37.32
2019-06-10T09:32:35.728Z,36.23
2019-06-10T09:35:09.357Z,35.25
2019-06-10T09:37:45.903Z,34.44
2019-06-10T09:40:17.601Z,33.81
2019-06-10T09:42:53.031Z,32.93
2019-06-10T09:45:23.954Z,32.57
2019-06-10T09:47:59.884Z,31.95
2019-06-10T09:50:48.791Z,31.57
2019-06-10T09:53:28.971Z,31.62
2019-06-10T09:55:52.919Z,31.89
2019-06-10T09:58:23.775Z,32.10
2019-06-10T10:00:58.027Z,31.84
2019-06-10T10:03:32.863Z,31.54
2019-06-10T10:06:14.564Z,31.42
2019-06-10T10:08:38.559Z,31.01
2019-06-10T10:11:12.776Z,30.93
2019-06-10T10:13:47.416Z,30.98
2019-06-10T10:16:19.583Z,30.78
2019-06-10T10:18:57.075Z,30.53
2019-06-10T10:21:25.633Z,30.64
2019-06-10T10:24:06.764Z,30.40
2019-06-10T10:26:31.496Z,29.70
2019-06-10T10:29:13.005Z,30.23
2019-06-10T10:31:54.105Z,30.30
2019-06-10T10:34:33.342Z,30.09
2019-06-10T10:37:07.955Z,29.61
2019-06-10T10:39:45.165Z,28.99
2019-06-10T10:42:18.305Z,29.58
2019-06-10T10:44:52.985Z,29.69
2019-06-10T10:47:27.656Z,29.25
2019-06-10T10:49:59.243Z,29.62
2019-06-10T10:52:33.067Z,29.50
2019-06-10T10:55:06.955Z,29.88
2019-06-10T10:57:39.263Z,30.64
2019-06-10T11:00:13.311Z,30.30
2019-06-10T11:02:49.227Z,30.06
2019-06-10T11:05:39.371Z,29.64
2019-06-10T11:08:13.547Z,29.97
2019-06-10T11:10:48.175Z,30.61
2019-06-10T11:13:26.631Z,30.50
2019-06-10T11:15:59.085Z,30.97
2019-06-10T11:18:35.976Z,31.64
2019-06-10T11:21:08.284Z,32.35
2019-06-10T11:23:43.565Z,32.64
2019-06-10T11:26:19.631Z,32.26
2019-06-10T11:28:54.403Z,32.90
2019-06-10T11:31:25.610Z,33.97
2019-06-10T11:33:59.099Z,34.79
2019-06-10T11:36:31.314Z,35.27
2019-06-10T11:39:03.624Z,35.86
2019-06-10T11:41:38.377Z,36.94
2019-06-10T11:44:10.591Z,37.01
2019-06-10T11:46:46.422Z,37.47
2019-06-10T11:49:19.688Z,38.59
2019-06-10T11:51:53.642Z,38.66
2019-06-10T11:54:27.364Z,39.19
2019-06-10T11:57:27.872Z,39.08
2019-06-10T12:00:13.613Z,39.42
2019-06-10T12:02:38.256Z,39.52
2019-06-10T12:05:20.277Z,39.99
2019-06-10T12:08:15.903Z,40.45
2019-06-10T12:10:57.269Z,40.97
2019-06-10T12:13:28.056Z,42.04
2019-06-10T12:18:34.531Z,40.83
2019-06-10T12:21:06.571Z,41.59
2019-06-10T12:23:39.514Z,40.12
2019-06-10T12:26:11.690Z,40.62
2019-06-10T12:28:43.943Z,41.04
2019-06-10T12:31:15.715Z,41.92
2019-06-10T12:33:48.723Z,39.82
2019-06-10T12:36:23.752Z,38.78
2019-06-10T12:39:01.756Z,38.40
2019-06-10T12:41:30.179Z,36.48
2019-06-10T12:44:03.300Z,35.46
2019-06-10T12:46:35.282Z,34.63
2019-06-10T12:49:08.633Z,35.28
2019-06-10T12:51:40.275Z,35.67
2019-06-10T12:54:13.280Z,36.27
2019-06-10T12:56:45.918Z,36.43
2019-06-10T12:59:18.915Z,36.09
2019-06-10T13:01:53.141Z,36.57
2019-06-10T13:04:24.417Z,36.76
2019-06-10T13:06:57.646Z,37.24
2019-06-10T13:09:32.717Z,38.21
2019-06-10T13:12:04.929Z,37.52
2019-06-10T13:14:36.276Z,37.02
2019-06-10T13:17:08.416Z,35.83
2019-06-10T13:19:40.249Z,35.17
2019-06-10T13:22:12.529Z,34.77
2019-06-10T13:24:48.003Z,34.66
2019-06-10T13:27:22.626Z,34.31
2019-06-10T13:29:56.225Z,34.50
2019-06-10T13:32:32.342Z,34.88
2019-06-10T13:35:05.981Z,35.42
2019-06-10T13:37:37.784Z,35.12
2019-06-10T13:40:12.881Z,34.54
2019-06-10T13:42:43.713Z,34.13
2019-06-10T13:45:16.063Z,34.20
2019-06-10T13:47:48.058Z,34.69
2019-06-10T13:50:22.460Z,34.86
2019-06-10T13:52:54.810Z,34.92
2019-06-10T13:55:26.806Z,34.65
2019-06-10T13:58:06.215Z,33.89
2019-06-10T14:00:45.976Z,33.67
2019-06-10T14:03:16.136Z,34.09
2019-06-10T14:05:46.286Z,34.28
2019-06-10T14:08:18.181Z,35.09
2019-06-10T14:10:50.360Z,35.30
2019-06-10T14:13:23.529Z,34.77
2019-06-10T14:15:55.163Z,35.29
2019-06-10T14:18:26.366Z,35.31
2019-06-10T14:20:58.522Z,33.57
2019-06-10T14:23:32.926Z,33.19
2019-06-10T14:26:06.183Z,32.56
2019-06-10T14:28:41.279Z,32.18
2019-06-10T14:31:35.542Z,32.54
2019-06-10T14:33:47.194Z,32.14
2019-06-10T14:36:19.245Z,32.43
2019-06-10T14:38:51.418Z,33.23
2019-06-10T14:41:25.991Z,33.70
2019-06-10T14:43:57.546Z,33.48
2019-06-10T14:46:32.956Z,34.14
2019-06-10T14:49:04.772Z,34.26
2019-06-10T14:51:37.037Z,34.05
2019-06-10T14:54:09.379Z,33.97
2019-06-10T14:56:52.781Z,33.58
2019-06-10T14:59:18.099Z,33.23
2019-06-10T15:01:52.188Z,33.57
2019-06-10T15:04:24.370Z,34.16
2019-06-10T15:06:55.943Z,33.85
2019-06-10T15:10:03.380Z,33.67
2019-06-10T15:12:09.688Z,33.35
2019-06-10T15:15:04.611Z,32.83
2019-06-10T15:17:32.515Z,33.97
2019-06-10T15:20:04.758Z,33.99
2019-06-10T15:22:43.105Z,35.37
2019-06-10T15:25:15.922Z,36.13
2019-06-10T15:27:48.113Z,35.19
2019-06-10T15:30:26.370Z,35.04
2019-06-10T15:33:18.500Z,34.93
2019-06-10T15:39:21.505Z,35.10
2019-06-10T15:41:54.779Z,34.46
2019-06-10T15:44:52.468Z,34.21
2019-06-10T15:47:26.354Z,34.33
2019-06-10T15:49:59.343Z,34.74
2019-06-10T15:52:32.813Z,35.51
2019-06-10T15:55:04.829Z,36.69
2019-06-10T15:57:43.209Z,36.96
2019-06-10T16:00:17.628Z,37.39
2019-06-10T16:02:57.821Z,37.37
2019-06-10T16:05:25.185Z,37.39
2019-06-10T16:07:55.734Z,36.89
2019-06-10T16:10:27.999Z,36.47
2019-06-10T16:13:03.431Z,37.92
2019-06-10T16:15:49.700Z,38.25
2019-06-10T16:18:26.033Z,37.82
2019-06-10T16:20:59.536Z,37.64
2019-06-10T16:23:34.530Z,39.17
2019-06-10T16:26:07.767Z,39.69
2019-06-10T16:28:42.719Z,39.71
2019-06-10T16:31:15.264Z,39.60
2019-06-10T16:33:49.581Z,39.00
2019-06-10T16:36:24.417Z,38.25
2019-06-10T16:38:59.859Z,37.12
2019-06-10T16:41:33.410Z,36.09
2019-06-10T16:44:04.693Z,35.59
2019-06-10T16:46:49.505Z,37.57
2019-06-10T16:49:21.400Z,37.48
2019-06-10T16:51:54.244Z,37.44
2019-06-10T16:54:29.959Z,36.78
2019-06-10T16:57:04.032Z,35.42
2019-06-10T16:59:35.555Z,37.86
2019-06-10T17:02:08.080Z,37.24
2019-06-10T17:04:43.463Z,36.44
2019-06-10T17:07:14.541Z,36.92
2019-06-10T17:10:35.200Z,35.71
2019-06-10T17:13:10.190Z,34.22
2019-06-10T17:15:43.951Z,35.10
2019-06-10T17:18:23.599Z,35.56
2019-06-10T17:21:03.577Z,35.45
2019-06-10T17:23:36.887Z,35.74
2019-06-10T17:26:11.476Z,36.12
2019-06-10T17:28:47.025Z,36.16
2019-06-10T17:31:25.787Z,36.66
2019-06-10T17:33:57.809Z,35.93
2019-06-10T17:36:35.423Z,36.08
2019-06-10T17:39:08.856Z,36.57
2019-06-10T17:41:45.436Z,36.90
2019-06-10T17:44:24.379Z,36.77
2019-06-10T17:47:02.228Z,36.61
2019-06-10T17:49:39.380Z,36.73
2019-06-10T17:52:12.993Z,36.65
2019-06-10T17:54:45.600Z,36.44
2019-06-10T17:57:19.055Z,36.43
2019-06-10T17:59:52.425Z,35.81
2019-06-10T18:02:29.539Z,36.46
2019-06-10T18:05:05.508Z,36.81
2019-06-10T18:07:39.892Z,36.48
2019-06-10T18:10:13.293Z,36.67
2019-06-10T18:12:47.064Z,36.33
2019-06-10T18:15:28.151Z,36.85
2019-06-10T18:18:09.590Z,36.74
2019-06-10T18:20:43.373Z,37.02
2019-06-10T18:23:26.476Z,37.55
2019-06-10T18:26:03.445Z,37.52
2019-06-10T18:28:56.630Z,38.31
2019-06-10T18:31:09.941Z,38.64
2019-06-10T18:33:42.533Z,38.76
2019-06-10T18:36:15.197Z,39.48
2019-06-10T18:38:47.378Z,39.82
2019-06-10T18:41:19.541Z,40.28
2019-06-10T18:43:55.249Z,40.79
2019-06-10T18:46:27.975Z,41.48
2019-06-10T18:49:02.486Z,42.50
2019-06-10T18:51:35.397Z,42.85
2019-06-10T18:54:08.341Z,43.42
2019-06-10T18:56:40.057Z,43.62
2019-06-10T18:59:19.862Z,43.59
2019-06-10T19:01:45.253Z,44.02
2019-06-10T19:04:16.627Z,44.48
2019-06-10T19:06:48.647Z,45.01
2019-06-10T19:09:20.197Z,45.55
2019-06-10T19:11:53.544Z,45.83
2019-06-10T19:18:13.153Z,46.32
2019-06-10T19:20:45.269Z,47.30
2019-06-10T19:23:18.803Z,47.95
2019-06-10T19:25:52.437Z,48.49
2019-06-10T19:28:26.079Z,49.57
2019-06-10T19:30:58.203Z,50.05
2019-06-10T19:33:29.605Z,50.22
2019-06-10T19:36:02.779Z,49.99
2019-06-10T19:38:36.400Z,49.42
2019-06-10T19:41:08.042Z,49.55
2019-06-10T19:43:41.511Z,49.39
2019-06-10T19:46:14.091Z,50.52
2019-06-10T19:48:56.898Z,49.90
2019-06-10T19:51:20.016Z,51.15
2019-06-10T19:53:52.672Z,50.67
2019-06-10T19:56:26.471Z,50.88
2019-06-10T19:58:58.020Z,50.80
2019-06-10T20:01:33.301Z,51.23
2019-06-10T20:04:04.292Z,51.79
2019-06-10T20:06:37.802Z,51.26
2019-06-10T20:09:13.072Z,51.53
2019-06-10T20:11:47.274Z,51.90
2019-06-10T20:14:17.049Z,52.05
2019-06-10T20:16:49.140Z,52.53
2019-06-10T20:19:22.473Z,52.74
2019-06-10T20:21:53.802Z,52.73
2019-06-10T20:24:25.151Z,53.55
2019-06-10T20:26:57.808Z,53.22
2019-06-10T20:29:29.132Z,52.80
2019-06-10T20:32:01.402Z,52.41
2019-06-10T20:34:33.012Z,52.24
2019-06-10T20:37:04.841Z,52.39
2019-06-10T20:39:37.883Z,52.60
2019-06-10T20:42:09.653Z,53.00
2019-06-10T20:44:43.280Z,53.47
2019-06-10T20:47:15.083Z,53.90
2019-06-10T20:49:52.765Z,53.91
2019-06-10T20:52:23.164Z,54.18
2019-06-10T20:54:54.681Z,54.94
2019-06-10T20:57:28.058Z,54.77
2019-06-10T21:00:00.974Z,55.27
2019-06-10T21:02:34.128Z,55.36
2019-06-10T21:05:09.597Z,55.19
2019-06-10T21:07:43.810Z,55.90
2019-06-10T21:10:19.006Z,55.91
2019-06-10T21:12:51.415Z,55.73
2019-06-10T21:15:23.569Z,56.08
2019-06-10T21:17:54.926Z,56.23
2019-06-10T21:20:29.154Z,57.28
2019-06-10T21:23:03.031Z,56.45
2019-06-10T21:25:33.818Z,56.45
2019-06-10T21:28:05.811Z,56.53
2019-06-10T21:30:42.036Z,56.53
2019-06-10T21:33:13.010Z,56.87
2019-06-10T21:35:46.937Z,57.61
2019-06-10T21:38:19.003Z,57.34
2019-06-10T21:40:53.902Z,57.39
2019-06-10T21:43:26.054Z,57.76
2019-06-10T21:46:03.827Z,57.96
2019-06-10T21:48:37.130Z,57.93
2019-06-10T21:51:09.086Z,57.18
2019-06-10T21:53:42.370Z,53.14
2019-06-10T21:56:16.631Z,55.22
2019-06-10T21:58:48.906Z,57.37
2019-06-10T22:01:22.441Z,58.81
2019-06-10T22:04:00.712Z,60.88
2019-06-10T22:06:28.724Z,63.01
2019-06-10T22:09:04.040Z,64.12
2019-06-10T22:11:36.572Z,65.82
2019-06-10T22:14:08.601Z,67.38
2019-06-10T22:16:42.143Z,69.45
2019-06-10T22:19:18.177Z,69.91
2019-06-10T22:21:53.312Z,70.98
2019-06-10T22:24:25.002Z,71.26
2019-06-10T22:26:59.278Z,71.73
2019-06-10T22:29:32.250Z,72.53
2019-06-10T22:32:04.292Z,74.52
2019-06-10T22:34:36.332Z,75.56
2019-06-10T22:37:08.428Z,76.11
2019-06-10T22:39:42.055Z,75.20
2019-06-10T22:42:13.728Z,74.98
2019-06-10T22:44:45.936Z,75.02
2019-06-10T22:47:17.401Z,75.27
2019-06-10T22:49:50.016Z,75.70
2019-06-10T22:52:23.097Z,80.52
2019-06-10T22:54:58.368Z,82.31
2019-06-10T22:57:29.214Z,83.65
2019-06-10T23:00:03.081Z,85.75
2019-06-10T23:02:36.094Z,91.78
2019-06-10T23:05:09.074Z,95.80
2019-06-10T23:07:43.291Z,98.84
2019-06-10T23:10:18.793Z,100.00
2019-06-10T23:12:51.342Z,100.00
2019-06-10T23:15:24.341Z,100.00
2019-06-10T23:18:03.288Z,100.00
2019-06-10T23:20:34.479Z,100.00
2019-06-10T23:24:33.176Z,100.00
2019-06-10T23:27:05.206Z,100.00
2019-06-10T23:29:36.533Z,100.00
2019-06-10T23:32:08.500Z,100.00
2019-06-10T23:34:42.117Z,100.00
2019-06-10T23:37:15.337Z,100.00
2019-06-10T23:39:46.665Z,100.00
2019-06-10T23:42:19.811Z,100.00
2019-06-10T23:44:51.197Z,100.00
2019-06-10T23:47:22.572Z,100.00
2019-06-10T23:49:55.664Z,100.00
2019-06-10T23:52:27.785Z,100.00
2019-06-10T23:54:59.957Z,100.00
2019-06-10T23:57:32.886Z,100.00
